createdAt,value
2022-08-01T00:04:32.782Z,3.17
2022-08-01T00:09:34.858Z,3.10
2022-08-01T00:14:38.016Z,2.22
2022-08-01T00:19:39.764Z,2.15
2022-08-01T00:24:41.640Z,5.32
2022-08-01T00:30:09.490Z,7.65
2022-08-01T00:35:05.520Z,2.40
2022-08-01T00:40:08.373Z,2.25
2022-08-01T00:45:10.748Z,2.38
2022-08-01T00:50:12.972Z,2.22
2022-08-01T00:55:15.402Z,2.75
2022-08-01T01:00:17.301Z,2.67
2022-08-01T01:05:19.239Z,2.75
2022-08-01T01:10:33.514Z,2.55
2022-08-01T01:15:42.935Z,4.57
2022-08-01T01:20:50.346Z,3.33
2022-08-01T01:26:18.127Z,3.08
2022-08-01T01:31:22.351Z,2.55
2022-08-01T01:36:27.070Z,3.00
2022-08-01T01:52:21.570Z,6.03
2022-08-01T01:57:24.855Z,3.92
2022-08-01T02:02:27.840Z,3.47
2022-08-01T02:07:30.293Z,10.73
2022-08-01T02:12:36.233Z,2.80
2022-08-01T02:17:42.314Z,4.97
2022-08-01T02:23:01.437Z,5.97
2022-08-01T02:28:11.337Z,4.07
2022-08-01T02:33:26.070Z,2.78
2022-08-01T02:38:32.566Z,5.72
2022-08-01T02:43:37.753Z,4.78
2022-08-01T02:48:40.290Z,3.60
2022-08-01T02:53:44.142Z,3.83
2022-08-01T02:58:48.612Z,4.07
2022-08-01T03:03:55.394Z,3.83
2022-08-01T03:08:58.536Z,4.03
2022-08-01T03:14:03.650Z,4.20
2022-08-01T03:19:06.994Z,4.25
2022-08-01T03:24:10.889Z,12.80
2022-08-01T03:29:18.266Z,11.02
2022-08-01T03:34:22.664Z,8.07
2022-08-01T03:39:29.054Z,4.43
2022-08-01T03:44:34.064Z,4.25
2022-08-01T03:49:48.259Z,7.00
2022-08-01T03:54:54.168Z,6.50
2022-08-01T03:59:58.222Z,4.25
2022-08-01T04:05:01.123Z,4.15
2022-08-01T04:10:03.570Z,3.30
2022-08-01T04:15:06.609Z,5.43
2022-08-01T04:20:08.818Z,5.63
2022-08-01T04:25:20.392Z,13.30
2022-08-01T04:30:30.859Z,9.50
2022-08-01T04:36:01.607Z,8.00
2022-08-01T04:40:56.748Z,6.55
2022-08-01T04:45:59.639Z,6.65
2022-08-01T04:51:02.241Z,4.32
2022-08-01T04:56:06.911Z,4.22
2022-08-01T05:01:09.970Z,5.82
2022-08-01T05:06:22.768Z,6.60
2022-08-01T05:11:25.495Z,13.38
2022-08-01T05:16:27.683Z,6.07
2022-08-01T05:21:29.874Z,4.40
2022-08-01T05:26:31.985Z,4.95
2022-08-01T05:31:35.257Z,4.70
2022-08-01T05:36:38.618Z,5.07
2022-08-01T05:41:52.267Z,5.65
2022-08-01T05:46:55.063Z,4.18
2022-08-01T05:51:57.353Z,6.45
2022-08-01T05:57:02.629Z,4.13
2022-08-01T06:02:05.313Z,4.45
2022-08-01T06:07:09.821Z,5.35
2022-08-01T06:12:11.665Z,4.50
2022-08-01T06:17:13.409Z,4.22
2022-08-01T06:22:22.324Z,4.50
2022-08-01T06:27:27.358Z,4.10
2022-08-01T06:32:30.619Z,3.65
2022-08-01T06:37:33.464Z,2.72
2022-08-01T06:42:38.838Z,3.65
2022-08-01T06:47:41.820Z,1.95
2022-08-01T06:52:43.628Z,2.53
2022-08-01T06:58:03.587Z,1.95
2022-08-01T07:03:05.681Z,2.05
2022-08-01T07:08:07.687Z,2.35
2022-08-01T07:13:12.001Z,2.40
2022-08-01T07:18:13.917Z,2.25
2022-08-01T07:23:16.021Z,2.30
2022-08-01T07:28:20.888Z,2.30
2022-08-01T07:33:25.029Z,2.08
2022-08-01T07:38:30.333Z,2.25
2022-08-01T07:43:32.509Z,1.98
2022-08-01T07:48:34.770Z,1.98
2022-08-01T07:53:36.742Z,1.73
2022-08-01T07:58:38.558Z,2.00
2022-08-01T08:03:44.451Z,1.70
2022-08-01T08:08:46.188Z,1.52
2022-08-01T08:13:48.302Z,1.50
2022-08-01T08:18:50.252Z,1.50
2022-08-01T08:24:11.287Z,1.52
2022-08-01T08:29:14.878Z,1.20
2022-08-01T08:34:16.868Z,1.80
2022-08-01T08:39:19.694Z,1.70
2022-08-01T08:44:22.378Z,1.50
2022-08-01T08:49:44.042Z,1.70
2022-08-01T08:54:47.305Z,1.40
2022-08-01T08:59:53.070Z,1.65
2022-08-01T09:04:55.326Z,2.03
2022-08-01T09:10:06.841Z,1.70
2022-08-01T09:15:08.993Z,1.35
2022-08-01T09:20:24.400Z,1.65
2022-08-01T09:25:29.555Z,1.27
2022-08-01T09:30:39.799Z,1.63
2022-08-01T09:35:48.065Z,1.38
2022-08-01T09:40:59.315Z,1.42
2022-08-01T09:46:13.072Z,1.45
2022-08-01T09:51:59.460Z,1.25
2022-08-01T09:56:51.894Z,1.60
2022-08-01T10:01:57.473Z,1.40
2022-08-01T10:07:07.238Z,1.38
2022-08-01T10:12:15.807Z,1.50
2022-08-01T10:17:50.517Z,1.40
2022-08-01T10:22:54.976Z,1.40
2022-08-01T10:28:01.473Z,1.20
2022-08-01T10:33:03.628Z,1.27
2022-08-01T10:38:21.279Z,1.30
2022-08-01T10:43:26.374Z,1.55
2022-08-01T10:48:33.173Z,1.20
2022-08-01T10:53:42.671Z,1.35
2022-08-01T10:58:49.516Z,1.38
2022-08-01T11:04:16.124Z,1.77
2022-08-01T11:09:36.596Z,1.52
2022-08-01T11:15:02.696Z,1.42
2022-08-01T11:20:18.520Z,1.40
2022-08-01T11:25:21.452Z,1.00
2022-08-01T11:31:26.639Z,1.30
2022-08-01T11:36:56.723Z,1.10
2022-08-01T11:41:51.710Z,1.00
2022-08-01T11:47:11.082Z,1.30
2022-08-01T11:52:34.475Z,0.90
2022-08-01T11:57:38.057Z,1.27
2022-08-01T12:02:40.839Z,1.10
2022-08-01T12:07:50.194Z,0.85
2022-08-01T12:13:02.272Z,0.80
2022-08-01T12:18:06.082Z,1.15
2022-08-01T12:23:10.222Z,0.98
2022-08-01T12:28:15.885Z,1.27
2022-08-01T12:33:26.793Z,0.90
2022-08-01T12:38:28.917Z,1.30
2022-08-01T12:43:32.877Z,0.88
2022-08-01T12:48:34.665Z,1.00
2022-08-01T12:53:41.228Z,0.93
2022-08-01T12:58:43.483Z,1.23
2022-08-01T13:04:00.031Z,1.20
2022-08-01T13:09:15.264Z,0.90
2022-08-01T13:14:29.884Z,1.00
2022-08-01T13:19:48.830Z,1.08
2022-08-01T13:25:11.134Z,1.10
2022-08-01T13:30:20.465Z,1.13
2022-08-01T13:35:22.205Z,1.05
2022-08-01T13:40:27.326Z,0.95
2022-08-01T13:45:29.163Z,0.90
2022-08-01T13:50:32.622Z,1.23
2022-08-01T13:55:42.356Z,0.93
2022-08-01T14:00:44.713Z,1.10
2022-08-01T14:05:47.204Z,1.00
2022-08-01T14:10:54.674Z,1.38
2022-08-01T14:16:14.921Z,1.15
2022-08-01T14:21:17.561Z,1.08
2022-08-01T14:26:19.286Z,1.00
2022-08-01T14:31:34.125Z,1.30
2022-08-01T14:36:38.321Z,1.30
2022-08-01T14:41:48.694Z,1.27
2022-08-01T14:46:58.031Z,1.30
2022-08-01T14:52:00.958Z,1.42
2022-08-01T14:57:03.444Z,1.52
2022-08-01T15:02:05.574Z,1.30
2022-08-01T15:07:08.012Z,1.48
2022-08-01T15:12:11.349Z,1.08
2022-08-01T15:17:13.551Z,1.80
2022-08-01T15:22:15.656Z,1.45
2022-08-01T15:27:17.641Z,1.33
2022-08-01T15:32:19.521Z,1.35
2022-08-01T15:37:27.574Z,1.40
2022-08-01T15:42:29.367Z,1.40
2022-08-01T15:47:31.503Z,1.30
2022-08-01T15:52:33.247Z,1.13
2022-08-01T15:57:34.986Z,1.27
2022-08-01T16:02:36.801Z,1.20
2022-08-01T16:08:01.324Z,1.30
2022-08-01T16:13:06.951Z,1.30
2022-08-01T16:18:24.627Z,1.20
2022-08-01T16:23:27.410Z,1.40
2022-08-01T16:28:29.166Z,0.93
2022-08-01T16:33:53.879Z,1.00
2022-08-01T16:38:56.601Z,1.20
2022-08-01T16:43:58.754Z,3.13
2022-08-01T16:49:03.808Z,1.63
2022-08-01T16:54:05.976Z,1.63
2022-08-01T16:59:27.713Z,1.48
2022-08-01T17:04:30.894Z,1.48
2022-08-01T17:09:32.749Z,1.67
2022-08-01T17:14:34.574Z,1.17
2022-08-01T17:19:36.477Z,1.40
2022-08-01T17:24:38.517Z,1.30
2022-08-01T17:29:43.518Z,1.00
2022-08-01T17:34:46.250Z,1.27
2022-08-01T17:39:48.399Z,1.10
2022-08-01T17:44:52.174Z,1.17
2022-08-01T17:49:56.591Z,1.17
2022-08-01T17:54:59.349Z,1.05
2022-08-01T18:00:01.153Z,1.00
2022-08-01T18:05:04.763Z,0.95
2022-08-01T18:10:11.918Z,1.25
2022-08-01T18:15:15.017Z,1.05
2022-08-01T18:20:17.069Z,0.80
2022-08-01T18:25:19.916Z,1.02
2022-08-01T18:30:32.168Z,0.85
2022-08-01T18:35:51.988Z,1.00
2022-08-01T18:40:54.740Z,0.70
2022-08-01T18:46:02.042Z,1.02
2022-08-01T18:51:03.849Z,0.88
2022-08-01T18:56:14.415Z,0.82
2022-08-01T19:01:19.178Z,0.90
2022-08-01T19:06:21.554Z,0.85
2022-08-01T19:11:24.041Z,1.02
2022-08-01T19:16:38.867Z,0.68
2022-08-01T19:22:24.156Z,1.10
2022-08-01T19:27:37.529Z,0.80
2022-08-01T19:32:40.025Z,0.80
2022-08-01T19:37:47.606Z,0.85
2022-08-01T19:42:49.517Z,0.90
2022-08-01T19:47:56.455Z,0.90
2022-08-01T19:53:02.554Z,1.13
2022-08-01T20:03:31.888Z,0.80
2022-08-01T20:08:35.414Z,1.85
2022-08-01T20:13:39.344Z,1.95
2022-08-01T20:18:46.299Z,1.90
2022-08-01T20:23:50.902Z,1.90
2022-08-01T20:28:53.944Z,1.60
2022-08-01T20:33:56.512Z,1.63
2022-08-01T20:38:59.031Z,1.20
2022-08-01T20:44:00.796Z,1.38
2022-08-01T20:49:03.331Z,1.42
2022-08-01T20:54:06.864Z,1.20
2022-08-01T20:59:39.801Z,4.20
2022-08-01T21:04:48.985Z,0.88
2022-08-01T21:10:03.994Z,1.10
2022-08-01T21:15:07.018Z,2.35
2022-08-01T21:20:12.051Z,1.40
2022-08-01T21:25:22.733Z,1.00
2022-08-01T21:30:25.487Z,1.05
2022-08-01T21:35:27.768Z,1.60
2022-08-01T21:40:32.416Z,1.13
2022-08-01T21:45:34.084Z,1.35
2022-08-01T21:50:45.201Z,1.10
2022-08-01T21:56:13.530Z,1.10
2022-08-01T22:01:24.165Z,1.30
2022-08-01T22:06:32.577Z,1.15
2022-08-01T22:11:37.156Z,7.63
2022-08-01T22:16:40.740Z,1.70
2022-08-01T22:21:43.067Z,1.30
2022-08-01T22:26:55.534Z,1.23
2022-08-01T22:32:18.288Z,1.23
2022-08-01T22:37:56.334Z,1.00
2022-08-01T22:42:46.642Z,1.20
2022-08-01T22:48:06.814Z,1.48
2022-08-01T22:53:24.232Z,1.13
2022-08-01T22:58:30.669Z,0.90
2022-08-01T23:03:40.181Z,1.08
2022-08-01T23:08:43.457Z,1.10
2022-08-01T23:13:46.888Z,0.90
2022-08-01T23:18:49.453Z,0.88
2022-08-01T23:23:51.801Z,1.05
2022-08-01T23:29:06.134Z,1.13
2022-08-01T23:34:07.940Z,1.17
2022-08-01T23:39:10.117Z,0.90
2022-08-01T23:44:13.556Z,0.98
2022-08-01T23:49:15.680Z,0.98
2022-08-01T23:54:22.346Z,1.00
2022-08-01T23:59:30.101Z,1.17
